sensor_id;sensor_type;location;lat;lon;timestamp;P1;durP1;ratioP1;P2;durP2;ratioP2
79375;SDS011;68846;53.150;18.136;2024-02-23T00:01:34;11.70;;;7.40;;
79375;SDS011;68846;53.150;18.136;2024-02-23T00:04:01;11.20;;;7.20;;
79375;SDS011;68846;53.150;18.136;2024-02-23T00:06:29;11.40;;;8.00;;
79375;SDS011;68846;53.150;18.136;2024-02-23T00:11:23;12.60;;;7.30;;
79375;SDS011;68846;53.150;18.136;2024-02-23T00:13:50;14.00;;;8.30;;
79375;SDS011;68846;53.150;18.136;2024-02-23T00:16:18;13.90;;;7.80;;
79375;SDS011;68846;53.150;18.136;2024-02-23T00:18:46;14.10;;;7.40;;
79375;SDS011;68846;53.150;18.136;2024-02-23T00:21:14;13.10;;;6.80;;
79375;SDS011;68846;53.150;18.136;2024-02-23T00:23:40;14.00;;;7.30;;
79375;SDS011;68846;53.150;18.136;2024-02-23T00:26:08;15.30;;;7.80;;
79375;SDS011;68846;53.150;18.136;2024-02-23T00:28:35;13.20;;;7.20;;
79375;SDS011;68846;53.150;18.136;2024-02-23T00:31:03;12.60;;;7.80;;
79375;SDS011;68846;53.150;18.136;2024-02-23T00:33:30;14.40;;;7.60;;
79375;SDS011;68846;53.150;18.136;2024-02-23T00:38:35;14.60;;;7.60;;
79375;SDS011;68846;53.150;18.136;2024-02-23T00:41:05;12.50;;;7.20;;
79375;SDS011;68846;53.150;18.136;2024-02-23T00:43:39;14.60;;;7.70;;
79375;SDS011;68846;53.150;18.136;2024-02-23T00:46:10;12.70;;;7.10;;
79375;SDS011;68846;53.150;18.136;2024-02-23T00:48:37;11.30;;;7.40;;
79375;SDS011;68846;53.150;18.136;2024-02-23T00:53:31;12.60;;;7.70;;
79375;SDS011;68846;53.150;18.136;2024-02-23T00:55:58;14.90;;;7.40;;
79375;SDS011;68846;53.150;18.136;2024-02-23T00:58:26;12.80;;;6.80;;
79375;SDS011;68846;53.150;18.136;2024-02-23T01:01:18;13.20;;;6.80;;
79375;SDS011;68846;53.150;18.136;2024-02-23T01:03:45;15.40;;;8.70;;
79375;SDS011;68846;53.150;18.136;2024-02-23T01:06:12;12.90;;;7.30;;
79375;SDS011;68846;53.150;18.136;2024-02-23T01:08:40;11.40;;;6.80;;
79375;SDS011;68846;53.150;18.136;2024-02-23T01:11:08;13.00;;;7.20;;
79375;SDS011;68846;53.150;18.136;2024-02-23T01:16:02;12.40;;;7.40;;
79375;SDS011;68846;53.150;18.136;2024-02-23T01:18:30;12.00;;;7.60;;
79375;SDS011;68846;53.150;18.136;2024-02-23T01:20:57;11.40;;;7.20;;
79375;SDS011;68846;53.150;18.136;2024-02-23T01:23:24;12.90;;;7.60;;
79375;SDS011;68846;53.150;18.136;2024-02-23T01:25:52;12.70;;;7.00;;
79375;SDS011;68846;53.150;18.136;2024-02-23T01:28:19;10.90;;;6.70;;
79375;SDS011;68846;53.150;18.136;2024-02-23T01:30:46;14.50;;;7.70;;
79375;SDS011;68846;53.150;18.136;2024-02-23T01:33:13;10.40;;;6.50;;
79375;SDS011;68846;53.150;18.136;2024-02-23T01:35:41;11.10;;;7.20;;
79375;SDS011;68846;53.150;18.136;2024-02-23T01:38:08;11.00;;;6.80;;
79375;SDS011;68846;53.150;18.136;2024-02-23T01:40:35;12.20;;;6.70;;
79375;SDS011;68846;53.150;18.136;2024-02-23T01:43:06;12.40;;;6.80;;
79375;SDS011;68846;53.150;18.136;2024-02-23T01:45:33;14.90;;;7.60;;
79375;SDS011;68846;53.150;18.136;2024-02-23T01:48:01;12.70;;;7.00;;
79375;SDS011;68846;53.150;18.136;2024-02-23T01:50:29;12.10;;;7.70;;
79375;SDS011;68846;53.150;18.136;2024-02-23T01:53:00;12.30;;;7.40;;
79375;SDS011;68846;53.150;18.136;2024-02-23T01:55:29;14.50;;;7.30;;
79375;SDS011;68846;53.150;18.136;2024-02-23T01:57:58;11.60;;;7.10;;
79375;SDS011;68846;53.150;18.136;2024-02-23T02:00:26;14.60;;;8.60;;
79375;SDS011;68846;53.150;18.136;2024-02-23T02:02:54;13.30;;;7.40;;
79375;SDS011;68846;53.150;18.136;2024-02-23T02:05:22;14.40;;;7.60;;
79375;SDS011;68846;53.150;18.136;2024-02-23T02:07:50;13.60;;;7.90;;
79375;SDS011;68846;53.150;18.136;2024-02-23T02:10:20;13.60;;;7.20;;
79375;SDS011;68846;53.150;18.136;2024-02-23T02:12:48;14.70;;;7.20;;
79375;SDS011;68846;53.150;18.136;2024-02-23T02:15:15;13.10;;;7.10;;
79375;SDS011;68846;53.150;18.136;2024-02-23T02:17:42;12.00;;;7.00;;
79375;SDS011;68846;53.150;18.136;2024-02-23T02:20:11;14.50;;;7.40;;
79375;SDS011;68846;53.150;18.136;2024-02-23T02:22:40;12.90;;;7.10;;
79375;SDS011;68846;53.150;18.136;2024-02-23T02:25:07;14.30;;;6.90;;
79375;SDS011;68846;53.150;18.136;2024-02-23T02:27:35;13.50;;;7.60;;
79375;SDS011;68846;53.150;18.136;2024-02-23T02:30:03;11.90;;;7.00;;
79375;SDS011;68846;53.150;18.136;2024-02-23T02:32:30;11.90;;;6.80;;
79375;SDS011;68846;53.150;18.136;2024-02-23T02:37:24;11.20;;;6.10;;
79375;SDS011;68846;53.150;18.136;2024-02-23T02:39:51;11.30;;;6.30;;
79375;SDS011;68846;53.150;18.136;2024-02-23T02:42:18;12.70;;;7.00;;
79375;SDS011;68846;53.150;18.136;2024-02-23T02:45:08;12.50;;;6.50;;
79375;SDS011;68846;53.150;18.136;2024-02-23T02:47:50;10.10;;;5.60;;
79375;SDS011;68846;53.150;18.136;2024-02-23T02:50:17;12.30;;;6.60;;
79375;SDS011;68846;53.150;18.136;2024-02-23T02:52:44;10.40;;;6.70;;
79375;SDS011;68846;53.150;18.136;2024-02-23T02:55:11;10.90;;;6.20;;
79375;SDS011;68846;53.150;18.136;2024-02-23T02:57:40;10.10;;;6.50;;
79375;SDS011;68846;53.150;18.136;2024-02-23T03:00:09;10.60;;;5.80;;
79375;SDS011;68846;53.150;18.136;2024-02-23T03:02:37;9.50;;;5.70;;
79375;SDS011;68846;53.150;18.136;2024-02-23T03:05:05;10.40;;;5.90;;
79375;SDS011;68846;53.150;18.136;2024-02-23T03:07:32;9.80;;;5.60;;
79375;SDS011;68846;53.150;18.136;2024-02-23T03:10:00;10.20;;;5.90;;
79375;SDS011;68846;53.150;18.136;2024-02-23T03:12:27;10.10;;;5.80;;
79375;SDS011;68846;53.150;18.136;2024-02-23T03:14:54;8.50;;;5.10;;
79375;SDS011;68846;53.150;18.136;2024-02-23T03:17:22;9.50;;;5.60;;
79375;SDS011;68846;53.150;18.136;2024-02-23T03:19:49;8.90;;;5.40;;
79375;SDS011;68846;53.150;18.136;2024-02-23T03:22:19;7.70;;;5.40;;
79375;SDS011;68846;53.150;18.136;2024-02-23T03:24:47;8.40;;;5.00;;
79375;SDS011;68846;53.150;18.136;2024-02-23T03:27:14;7.10;;;4.40;;
79375;SDS011;68846;53.150;18.136;2024-02-23T03:29:41;8.80;;;4.80;;
79375;SDS011;68846;53.150;18.136;2024-02-23T03:32:08;9.30;;;5.10;;
79375;SDS011;68846;53.150;18.136;2024-02-23T03:34:35;8.80;;;4.90;;
79375;SDS011;68846;53.150;18.136;2024-02-23T03:37:03;7.30;;;4.40;;
79375;SDS011;68846;53.150;18.136;2024-02-23T03:39:30;8.50;;;4.70;;
79375;SDS011;68846;53.150;18.136;2024-02-23T03:41:59;7.30;;;4.50;;
79375;SDS011;68846;53.150;18.136;2024-02-23T03:44:26;7.10;;;4.60;;
79375;SDS011;68846;53.150;18.136;2024-02-23T03:46:53;8.80;;;4.90;;
79375;SDS011;68846;53.150;18.136;2024-02-23T03:49:20;9.40;;;4.40;;
79375;SDS011;68846;53.150;18.136;2024-02-23T03:51:47;6.80;;;4.10;;
79375;SDS011;68846;53.150;18.136;2024-02-23T03:54:14;6.40;;;4.50;;
79375;SDS011;68846;53.150;18.136;2024-02-23T03:56:41;6.70;;;3.70;;
79375;SDS011;68846;53.150;18.136;2024-02-23T03:59:09;5.30;;;3.60;;
79375;SDS011;68846;53.150;18.136;2024-02-23T04:01:38;6.60;;;3.80;;
79375;SDS011;68846;53.150;18.136;2024-02-23T04:04:06;5.90;;;3.80;;
79375;SDS011;68846;53.150;18.136;2024-02-23T04:06:33;7.70;;;3.60;;
79375;SDS011;68846;53.150;18.136;2024-02-23T04:09:01;6.40;;;3.90;;
79375;SDS011;68846;53.150;18.136;2024-02-23T04:11:28;6.60;;;3.80;;
79375;SDS011;68846;53.150;18.136;2024-02-23T04:13:56;6.30;;;3.90;;
79375;SDS011;68846;53.150;18.136;2024-02-23T04:16:23;6.00;;;3.80;;
79375;SDS011;68846;53.150;18.136;2024-02-23T04:18:54;6.00;;;3.50;;
79375;SDS011;68846;53.150;18.136;2024-02-23T04:21:22;7.70;;;4.00;;
79375;SDS011;68846;53.150;18.136;2024-02-23T04:23:49;11.10;;;4.20;;
79375;SDS011;68846;53.150;18.136;2024-02-23T04:26:17;7.30;;;3.90;;
79375;SDS011;68846;53.150;18.136;2024-02-23T04:28:44;7.10;;;3.70;;
79375;SDS011;68846;53.150;18.136;2024-02-23T04:31:11;9.10;;;4.60;;
79375;SDS011;68846;53.150;18.136;2024-02-23T04:33:39;7.10;;;4.10;;
79375;SDS011;68846;53.150;18.136;2024-02-23T04:36:07;8.70;;;3.20;;
79375;SDS011;68846;53.150;18.136;2024-02-23T04:38:34;7.70;;;3.60;;
79375;SDS011;68846;53.150;18.136;2024-02-23T04:41:03;6.00;;;3.50;;
79375;SDS011;68846;53.150;18.136;2024-02-23T04:43:33;7.20;;;3.60;;
79375;SDS011;68846;53.150;18.136;2024-02-23T04:46:02;5.70;;;3.30;;
79375;SDS011;68846;53.150;18.136;2024-02-23T04:48:29;6.00;;;3.30;;
79375;SDS011;68846;53.150;18.136;2024-02-23T04:50:57;7.00;;;3.20;;
79375;SDS011;68846;53.150;18.136;2024-02-23T04:53:24;4.60;;;3.00;;
79375;SDS011;68846;53.150;18.136;2024-02-23T04:55:52;6.60;;;3.50;;
79375;SDS011;68846;53.150;18.136;2024-02-23T04:58:19;6.10;;;3.30;;
79375;SDS011;68846;53.150;18.136;2024-02-23T05:00:47;7.00;;;3.10;;
79375;SDS011;68846;53.150;18.136;2024-02-23T05:03:14;4.40;;;2.80;;
79375;SDS011;68846;53.150;18.136;2024-02-23T05:05:43;5.50;;;3.00;;
79375;SDS011;68846;53.150;18.136;2024-02-23T05:08:10;5.50;;;3.10;;
79375;SDS011;68846;53.150;18.136;2024-02-23T05:10:37;4.50;;;2.90;;
79375;SDS011;68846;53.150;18.136;2024-02-23T05:13:04;4.70;;;2.50;;
79375;SDS011;68846;53.150;18.136;2024-02-23T05:15:31;6.10;;;3.00;;
79375;SDS011;68846;53.150;18.136;2024-02-23T05:17:59;4.20;;;2.60;;
79375;SDS011;68846;53.150;18.136;2024-02-23T05:20:26;5.30;;;3.00;;
79375;SDS011;68846;53.150;18.136;2024-02-23T05:22:53;6.00;;;2.60;;
79375;SDS011;68846;53.150;18.136;2024-02-23T05:25:20;3.30;;;2.00;;
79375;SDS011;68846;53.150;18.136;2024-02-23T05:27:47;3.20;;;1.90;;
79375;SDS011;68846;53.150;18.136;2024-02-23T05:30:15;4.40;;;2.20;;
79375;SDS011;68846;53.150;18.136;2024-02-23T05:32:42;2.80;;;1.90;;
79375;SDS011;68846;53.150;18.136;2024-02-23T05:35:09;4.40;;;1.90;;
79375;SDS011;68846;53.150;18.136;2024-02-23T05:37:37;2.30;;;1.60;;
79375;SDS011;68846;53.150;18.136;2024-02-23T05:40:05;2.60;;;1.60;;
79375;SDS011;68846;53.150;18.136;2024-02-23T05:42:39;2.60;;;1.80;;
79375;SDS011;68846;53.150;18.136;2024-02-23T05:45:09;2.40;;;1.80;;
79375;SDS011;68846;53.150;18.136;2024-02-23T05:47:37;4.10;;;1.60;;
79375;SDS011;68846;53.150;18.136;2024-02-23T05:50:08;2.40;;;1.70;;
79375;SDS011;68846;53.150;18.136;2024-02-23T05:52:35;2.70;;;1.50;;
79375;SDS011;68846;53.150;18.136;2024-02-23T05:55:03;2.30;;;1.60;;
79375;SDS011;68846;53.150;18.136;2024-02-23T05:57:30;2.20;;;1.30;;
79375;SDS011;68846;53.150;18.136;2024-02-23T05:59:58;2.30;;;1.40;;
79375;SDS011;68846;53.150;18.136;2024-02-23T06:02:25;2.30;;;1.50;;
79375;SDS011;68846;53.150;18.136;2024-02-23T06:04:52;3.10;;;1.50;;
79375;SDS011;68846;53.150;18.136;2024-02-23T06:07:19;2.40;;;1.50;;
79375;SDS011;68846;53.150;18.136;2024-02-23T06:09:48;2.20;;;1.50;;
79375;SDS011;68846;53.150;18.136;2024-02-23T06:12:16;2.20;;;1.40;;
79375;SDS011;68846;53.150;18.136;2024-02-23T06:14:43;2.40;;;1.10;;
79375;SDS011;68846;53.150;18.136;2024-02-23T06:17:10;2.50;;;1.40;;
79375;SDS011;68846;53.150;18.136;2024-02-23T06:19:37;2.00;;;1.30;;
79375;SDS011;68846;53.150;18.136;2024-02-23T06:22:07;1.80;;;1.30;;
79375;SDS011;68846;53.150;18.136;2024-02-23T06:24:35;3.40;;;1.70;;
79375;SDS011;68846;53.150;18.136;2024-02-23T06:27:02;2.40;;;1.30;;
79375;SDS011;68846;53.150;18.136;2024-02-23T06:29:29;2.80;;;1.60;;
79375;SDS011;68846;53.150;18.136;2024-02-23T06:31:56;2.00;;;1.00;;
79375;SDS011;68846;53.150;18.136;2024-02-23T06:34:23;2.90;;;1.70;;
79375;SDS011;68846;53.150;18.136;2024-02-23T06:36:51;2.50;;;1.20;;
79375;SDS011;68846;53.150;18.136;2024-02-23T06:39:18;2.60;;;1.40;;
79375;SDS011;68846;53.150;18.136;2024-02-23T06:41:47;2.00;;;1.40;;
79375;SDS011;68846;53.150;18.136;2024-02-23T06:44:14;4.20;;;1.70;;
79375;SDS011;68846;53.150;18.136;2024-02-23T06:46:41;2.50;;;1.30;;
79375;SDS011;68846;53.150;18.136;2024-02-23T06:49:08;3.90;;;1.40;;
79375;SDS011;68846;53.150;18.136;2024-02-23T06:51:35;3.30;;;1.30;;
79375;SDS011;68846;53.150;18.136;2024-02-23T06:54:03;1.90;;;1.20;;
79375;SDS011;68846;53.150;18.136;2024-02-23T06:56:30;2.90;;;1.50;;
79375;SDS011;68846;53.150;18.136;2024-02-23T06:58:57;2.90;;;1.50;;
79375;SDS011;68846;53.150;18.136;2024-02-23T07:01:24;2.30;;;1.10;;
79375;SDS011;68846;53.150;18.136;2024-02-23T07:03:51;1.20;;;0.80;;
79375;SDS011;68846;53.150;18.136;2024-02-23T07:06:19;2.00;;;0.90;;
79375;SDS011;68846;53.150;18.136;2024-02-23T07:08:46;1.00;;;0.80;;
79375;SDS011;68846;53.150;18.136;2024-02-23T07:11:13;1.60;;;1.00;;
79375;SDS011;68846;53.150;18.136;2024-02-23T07:13:43;1.40;;;0.60;;
79375;SDS011;68846;53.150;18.136;2024-02-23T07:16:11;1.50;;;1.20;;
79375;SDS011;68846;53.150;18.136;2024-02-23T07:18:40;1.60;;;1.00;;
79375;SDS011;68846;53.150;18.136;2024-02-23T07:21:08;2.60;;;1.20;;
79375;SDS011;68846;53.150;18.136;2024-02-23T07:23:35;2.10;;;1.20;;
79375;SDS011;68846;53.150;18.136;2024-02-23T07:26:02;2.20;;;1.10;;
79375;SDS011;68846;53.150;18.136;2024-02-23T07:28:30;2.50;;;1.10;;
79375;SDS011;68846;53.150;18.136;2024-02-23T07:30:57;1.90;;;1.00;;
79375;SDS011;68846;53.150;18.136;2024-02-23T07:33:24;2.70;;;1.10;;
79375;SDS011;68846;53.150;18.136;2024-02-23T07:35:51;2.10;;;1.00;;
79375;SDS011;68846;53.150;18.136;2024-02-23T07:38:19;2.20;;;1.10;;
79375;SDS011;68846;53.150;18.136;2024-02-23T07:40:46;1.90;;;0.90;;
79375;SDS011;68846;53.150;18.136;2024-02-23T07:43:13;1.50;;;0.60;;
79375;SDS011;68846;53.150;18.136;2024-02-23T07:45:40;1.10;;;0.90;;
79375;SDS011;68846;53.150;18.136;2024-02-23T07:48:09;1.00;;;0.70;;
79375;SDS011;68846;53.150;18.136;2024-02-23T07:50:36;1.30;;;0.60;;
79375;SDS011;68846;53.150;18.136;2024-02-23T07:53:03;1.50;;;0.60;;
79375;SDS011;68846;53.150;18.136;2024-02-23T07:55:30;1.20;;;0.60;;
79375;SDS011;68846;53.150;18.136;2024-02-23T07:57:58;1.30;;;0.60;;
79375;SDS011;68846;53.150;18.136;2024-02-23T08:00:27;1.80;;;0.80;;
79375;SDS011;68846;53.150;18.136;2024-02-23T08:02:55;0.80;;;0.50;;
79375;SDS011;68846;53.150;18.136;2024-02-23T08:05:27;4.60;;;0.60;;
79375;SDS011;68846;53.150;18.136;2024-02-23T08:07:54;1.30;;;0.50;;
79375;SDS011;68846;53.150;18.136;2024-02-23T08:10:21;3.10;;;0.80;;
79375;SDS011;68846;53.150;18.136;2024-02-23T08:12:48;0.90;;;0.50;;
79375;SDS011;68846;53.150;18.136;2024-02-23T08:15:15;2.00;;;0.50;;
79375;SDS011;68846;53.150;18.136;2024-02-23T08:17:43;1.50;;;0.50;;
79375;SDS011;68846;53.150;18.136;2024-02-23T08:20:11;1.20;;;0.50;;
79375;SDS011;68846;53.150;18.136;2024-02-23T08:22:38;1.00;;;0.50;;
79375;SDS011;68846;53.150;18.136;2024-02-23T08:25:05;1.40;;;0.50;;
79375;SDS011;68846;53.150;18.136;2024-02-23T08:27:33;1.50;;;0.70;;
79375;SDS011;68846;53.150;18.136;2024-02-23T08:30:01;0.80;;;0.70;;
79375;SDS011;68846;53.150;18.136;2024-02-23T08:32:28;3.20;;;0.60;;
79375;SDS011;68846;53.150;18.136;2024-02-23T08:34:55;1.50;;;0.60;;
79375;SDS011;68846;53.150;18.136;2024-02-23T08:37:26;1.40;;;0.70;;
79375;SDS011;68846;53.150;18.136;2024-02-23T08:39:53;2.20;;;0.70;;
79375;SDS011;68846;53.150;18.136;2024-02-23T08:42:21;2.90;;;0.80;;
79375;SDS011;68846;53.150;18.136;2024-02-23T08:44:48;2.00;;;0.60;;
79375;SDS011;68846;53.150;18.136;2024-02-23T08:47:15;1.40;;;0.70;;
79375;SDS011;68846;53.150;18.136;2024-02-23T08:49:43;1.50;;;0.60;;
79375;SDS011;68846;53.150;18.136;2024-02-23T08:52:12;2.00;;;0.60;;
79375;SDS011;68846;53.150;18.136;2024-02-23T08:54:39;1.80;;;0.80;;
79375;SDS011;68846;53.150;18.136;2024-02-23T08:57:06;4.30;;;0.70;;
79375;SDS011;68846;53.150;18.136;2024-02-23T08:59:33;1.40;;;0.70;;
79375;SDS011;68846;53.150;18.136;2024-02-23T09:02:00;2.60;;;0.70;;
79375;SDS011;68846;53.150;18.136;2024-02-23T09:04:28;1.40;;;0.70;;
79375;SDS011;68846;53.150;18.136;2024-02-23T09:06:55;2.50;;;0.90;;
79375;SDS011;68846;53.150;18.136;2024-02-23T09:09:22;3.20;;;1.00;;
79375;SDS011;68846;53.150;18.136;2024-02-23T09:11:49;1.60;;;0.70;;
79375;SDS011;68846;53.150;18.136;2024-02-23T09:14:16;2.40;;;0.80;;
79375;SDS011;68846;53.150;18.136;2024-02-23T09:16:43;1.70;;;0.80;;
79375;SDS011;68846;53.150;18.136;2024-02-23T09:19:11;1.20;;;0.70;;
79375;SDS011;68846;53.150;18.136;2024-02-23T09:21:39;5.60;;;0.90;;
79375;SDS011;68846;53.150;18.136;2024-02-23T09:24:06;2.30;;;0.60;;
79375;SDS011;68846;53.150;18.136;2024-02-23T09:26:33;2.10;;;0.80;;
79375;SDS011;68846;53.150;18.136;2024-02-23T09:29:00;1.60;;;0.70;;
79375;SDS011;68846;53.150;18.136;2024-02-23T09:31:27;4.10;;;1.60;;
79375;SDS011;68846;53.150;18.136;2024-02-23T09:33:56;4.50;;;1.30;;
79375;SDS011;68846;53.150;18.136;2024-02-23T09:36:23;4.00;;;1.10;;
79375;SDS011;68846;53.150;18.136;2024-02-23T09:38:50;3.70;;;1.50;;
79375;SDS011;68846;53.150;18.136;2024-02-23T09:41:19;5.20;;;1.40;;
79375;SDS011;68846;53.150;18.136;2024-02-23T09:43:48;3.60;;;1.00;;
79375;SDS011;68846;53.150;18.136;2024-02-23T09:46:17;2.20;;;1.00;;
79375;SDS011;68846;53.150;18.136;2024-02-23T09:48:45;2.60;;;1.10;;
79375;SDS011;68846;53.150;18.136;2024-02-23T09:51:12;3.10;;;0.90;;
79375;SDS011;68846;53.150;18.136;2024-02-23T09:53:42;4.90;;;1.30;;
79375;SDS011;68846;53.150;18.136;2024-02-23T09:56:11;2.40;;;0.80;;
79375;SDS011;68846;53.150;18.136;2024-02-23T09:58:39;2.10;;;0.70;;
79375;SDS011;68846;53.150;18.136;2024-02-23T10:01:08;2.20;;;0.80;;
79375;SDS011;68846;53.150;18.136;2024-02-23T10:03:38;2.40;;;0.90;;
79375;SDS011;68846;53.150;18.136;2024-02-23T10:06:07;1.40;;;0.80;;
79375;SDS011;68846;53.150;18.136;2024-02-23T10:08:34;2.90;;;1.00;;
79375;SDS011;68846;53.150;18.136;2024-02-23T10:11:03;2.20;;;1.40;;
79375;SDS011;68846;53.150;18.136;2024-02-23T10:13:30;3.00;;;0.90;;
79375;SDS011;68846;53.150;18.136;2024-02-23T10:15:57;4.30;;;0.70;;
79375;SDS011;68846;53.150;18.136;2024-02-23T10:18:24;2.20;;;0.90;;
79375;SDS011;68846;53.150;18.136;2024-02-23T10:20:51;1.90;;;0.90;;
79375;SDS011;68846;53.150;18.136;2024-02-23T10:23:20;2.20;;;0.90;;
79375;SDS011;68846;53.150;18.136;2024-02-23T10:25:48;1.50;;;1.10;;
79375;SDS011;68846;53.150;18.136;2024-02-23T10:28:15;2.30;;;0.80;;
79375;SDS011;68846;53.150;18.136;2024-02-23T10:30:43;2.10;;;1.00;;
79375;SDS011;68846;53.150;18.136;2024-02-23T10:33:10;2.30;;;0.90;;
79375;SDS011;68846;53.150;18.136;2024-02-23T10:35:40;2.30;;;0.60;;
79375;SDS011;68846;53.150;18.136;2024-02-23T10:38:12;2.30;;;0.50;;
79375;SDS011;68846;53.150;18.136;2024-02-23T10:40:45;1.30;;;0.50;;
79375;SDS011;68846;53.150;18.136;2024-02-23T10:43:16;1.60;;;0.80;;
79375;SDS011;68846;53.150;18.136;2024-02-23T10:45:46;2.00;;;0.50;;
79375;SDS011;68846;53.150;18.136;2024-02-23T10:48:14;1.20;;;0.70;;
79375;SDS011;68846;53.150;18.136;2024-02-23T10:50:41;0.90;;;0.50;;
79375;SDS011;68846;53.150;18.136;2024-02-23T10:53:11;1.70;;;0.60;;
79375;SDS011;68846;53.150;18.136;2024-02-23T10:55:39;1.00;;;0.60;;
79375;SDS011;68846;53.150;18.136;2024-02-23T10:58:09;0.70;;;0.30;;
79375;SDS011;68846;53.150;18.136;2024-02-23T11:00:39;2.60;;;0.60;;
79375;SDS011;68846;53.150;18.136;2024-02-23T11:03:06;1.20;;;0.40;;
79375;SDS011;68846;53.150;18.136;2024-02-23T11:05:34;0.60;;;0.40;;
79375;SDS011;68846;53.150;18.136;2024-02-23T11:08:01;0.70;;;0.30;;
79375;SDS011;68846;53.150;18.136;2024-02-23T11:10:30;0.80;;;0.50;;
79375;SDS011;68846;53.150;18.136;2024-02-23T11:12:58;1.60;;;0.60;;
79375;SDS011;68846;53.150;18.136;2024-02-23T11:15:27;1.80;;;0.60;;
79375;SDS011;68846;53.150;18.136;2024-02-23T11:22:52;1.40;;;0.40;;
79375;SDS011;68846;53.150;18.136;2024-02-23T11:29:19;1.60;;;0.50;;
79375;SDS011;68846;53.150;18.136;2024-02-23T11:41:42;1.10;;;0.50;;
79375;SDS011;68846;53.150;18.136;2024-02-23T11:52:26;1.40;;;0.60;;
79375;SDS011;68846;53.150;18.136;2024-02-23T11:54:55;1.40;;;0.50;;
79375;SDS011;68846;53.150;18.136;2024-02-23T11:57:24;1.60;;;0.70;;
79375;SDS011;68846;53.150;18.136;2024-02-23T11:59:51;2.00;;;0.80;;
79375;SDS011;68846;53.150;18.136;2024-02-23T12:02:19;1.40;;;0.80;;
79375;SDS011;68846;53.150;18.136;2024-02-23T12:04:46;3.40;;;0.60;;
79375;SDS011;68846;53.150;18.136;2024-02-23T12:07:13;2.10;;;0.80;;
79375;SDS011;68846;53.150;18.136;2024-02-23T12:09:42;0.90;;;0.50;;
79375;SDS011;68846;53.150;18.136;2024-02-23T12:12:10;4.50;;;0.80;;
79375;SDS011;68846;53.150;18.136;2024-02-23T12:14:37;0.70;;;0.60;;
79375;SDS011;68846;53.150;18.136;2024-02-23T12:17:08;2.30;;;0.70;;
79375;SDS011;68846;53.150;18.136;2024-02-23T12:19:39;2.40;;;1.00;;
79375;SDS011;68846;53.150;18.136;2024-02-23T12:22:10;1.50;;;0.50;;
79375;SDS011;68846;53.150;18.136;2024-02-23T12:24:41;1.40;;;0.40;;
79375;SDS011;68846;53.150;18.136;2024-02-23T12:27:09;1.60;;;0.60;;
79375;SDS011;68846;53.150;18.136;2024-02-23T12:29:37;2.20;;;1.00;;
79375;SDS011;68846;53.150;18.136;2024-02-23T12:32:07;1.00;;;0.70;;
79375;SDS011;68846;53.150;18.136;2024-02-23T12:34:35;1.20;;;0.60;;
79375;SDS011;68846;53.150;18.136;2024-02-23T12:37:02;0.70;;;0.60;;
79375;SDS011;68846;53.150;18.136;2024-02-23T12:39:32;1.30;;;0.80;;
79375;SDS011;68846;53.150;18.136;2024-02-23T12:41:59;2.00;;;0.60;;
79375;SDS011;68846;53.150;18.136;2024-02-23T12:44:26;2.20;;;0.90;;
79375;SDS011;68846;53.150;18.136;2024-02-23T12:59:41;1.70;;;0.90;;
79375;SDS011;68846;53.150;18.136;2024-02-23T13:02:08;1.70;;;1.00;;
79375;SDS011;68846;53.150;18.136;2024-02-23T13:04:38;2.50;;;0.90;;
79375;SDS011;68846;53.150;18.136;2024-02-23T13:54:27;2.30;;;0.80;;
79375;SDS011;68846;53.150;18.136;2024-02-23T14:01:50;1.20;;;0.60;;
79375;SDS011;68846;53.150;18.136;2024-02-23T14:08:49;2.30;;;0.80;;
79375;SDS011;68846;53.150;18.136;2024-02-23T14:25:41;2.00;;;1.00;;
79375;SDS011;68846;53.150;18.136;2024-02-23T14:33:05;4.30;;;1.60;;
79375;SDS011;68846;53.150;18.136;2024-02-23T14:35:57;2.00;;;1.10;;
79375;SDS011;68846;53.150;18.136;2024-02-23T14:48:17;2.10;;;1.10;;
79375;SDS011;68846;53.150;18.136;2024-02-23T14:50:45;3.90;;;1.30;;
79375;SDS011;68846;53.150;18.136;2024-02-23T14:53:37;2.00;;;0.80;;
79375;SDS011;68846;53.150;18.136;2024-02-23T15:29:43;6.60;;;1.80;;
79375;SDS011;68846;53.150;18.136;2024-02-23T15:32:10;3.70;;;1.50;;
79375;SDS011;68846;53.150;18.136;2024-02-23T15:34:38;5.50;;;1.50;;
79375;SDS011;68846;53.150;18.136;2024-02-23T15:46:34;5.40;;;1.70;;
79375;SDS011;68846;53.150;18.136;2024-02-23T15:49:01;3.80;;;1.70;;
79375;SDS011;68846;53.150;18.136;2024-02-23T15:51:28;4.60;;;1.80;;
79375;SDS011;68846;53.150;18.136;2024-02-23T15:54:00;6.20;;;1.80;;
79375;SDS011;68846;53.150;18.136;2024-02-23T15:56:27;3.20;;;1.50;;
79375;SDS011;68846;53.150;18.136;2024-02-23T16:06:45;3.20;;;1.50;;
79375;SDS011;68846;53.150;18.136;2024-02-23T16:09:12;6.00;;;1.60;;
79375;SDS011;68846;53.150;18.136;2024-02-23T16:11:45;5.90;;;1.80;;
79375;SDS011;68846;53.150;18.136;2024-02-23T16:14:16;6.10;;;2.00;;
79375;SDS011;68846;53.150;18.136;2024-02-23T16:25:22;7.70;;;3.00;;
79375;SDS011;68846;53.150;18.136;2024-02-23T16:27:49;7.00;;;2.90;;
79375;SDS011;68846;53.150;18.136;2024-02-23T16:30:16;5.10;;;2.60;;
79375;SDS011;68846;53.150;18.136;2024-02-23T16:32:44;5.70;;;3.00;;
79375;SDS011;68846;53.150;18.136;2024-02-23T16:35:11;4.20;;;1.90;;
79375;SDS011;68846;53.150;18.136;2024-02-23T16:58:29;5.20;;;2.40;;
79375;SDS011;68846;53.150;18.136;2024-02-23T17:01:03;5.90;;;2.40;;
79375;SDS011;68846;53.150;18.136;2024-02-23T17:03:35;7.20;;;2.40;;
79375;SDS011;68846;53.150;18.136;2024-02-23T17:06:03;5.60;;;2.50;;
79375;SDS011;68846;53.150;18.136;2024-02-23T17:08:57;5.30;;;2.60;;
79375;SDS011;68846;53.150;18.136;2024-02-23T17:11:24;5.60;;;2.50;;
79375;SDS011;68846;53.150;18.136;2024-02-23T17:13:51;4.90;;;2.50;;
79375;SDS011;68846;53.150;18.136;2024-02-23T17:21:15;7.40;;;2.50;;
79375;SDS011;68846;53.150;18.136;2024-02-23T17:23:42;4.60;;;2.70;;
79375;SDS011;68846;53.150;18.136;2024-02-23T17:26:09;5.60;;;2.90;;
79375;SDS011;68846;53.150;18.136;2024-02-23T17:43:03;7.50;;;3.20;;
79375;SDS011;68846;53.150;18.136;2024-02-23T17:45:30;7.80;;;3.40;;
79375;SDS011;68846;53.150;18.136;2024-02-23T17:51:14;7.20;;;3.80;;
79375;SDS011;68846;53.150;18.136;2024-02-23T17:53:41;11.60;;;4.60;;
79375;SDS011;68846;53.150;18.136;2024-02-23T18:01:04;11.10;;;3.70;;
79375;SDS011;68846;53.150;18.136;2024-02-23T18:03:32;9.10;;;4.70;;
79375;SDS011;68846;53.150;18.136;2024-02-23T18:05:59;5.70;;;2.70;;
79375;SDS011;68846;53.150;18.136;2024-02-23T18:08:27;8.40;;;3.30;;
79375;SDS011;68846;53.150;18.136;2024-02-23T18:10:54;9.10;;;3.30;;
79375;SDS011;68846;53.150;18.136;2024-02-23T18:13:23;9.80;;;4.30;;
79375;SDS011;68846;53.150;18.136;2024-02-23T18:15:51;8.20;;;4.20;;
79375;SDS011;68846;53.150;18.136;2024-02-23T18:18:18;10.50;;;4.20;;
79375;SDS011;68846;53.150;18.136;2024-02-23T18:20:45;10.90;;;3.40;;
79375;SDS011;68846;53.150;18.136;2024-02-23T18:23:12;9.90;;;4.10;;
79375;SDS011;68846;53.150;18.136;2024-02-23T18:25:39;9.80;;;4.30;;
79375;SDS011;68846;53.150;18.136;2024-02-23T18:30:33;9.10;;;4.40;;
79375;SDS011;68846;53.150;18.136;2024-02-23T18:33:00;9.10;;;4.70;;
79375;SDS011;68846;53.150;18.136;2024-02-23T18:35:27;10.40;;;5.40;;
79375;SDS011;68846;53.150;18.136;2024-02-23T18:37:56;11.90;;;5.90;;
79375;SDS011;68846;53.150;18.136;2024-02-23T18:40:23;13.00;;;6.10;;
79375;SDS011;68846;53.150;18.136;2024-02-23T18:45:18;15.20;;;6.10;;
79375;SDS011;68846;53.150;18.136;2024-02-23T18:47:47;14.40;;;6.50;;